PROFILE

 METAR AND TAF INFORMATION
ADDS - METARS form results

(1239 UTC 26 September 2021)
http://aviationweather.gov/metar/data/
 
YBBN 261230Z 13010KT 9999 VCSH FEW025 BKN050 19/13 Q1021
YBBN 261200Z 15009G19KT 9999 -SHRA FEW023 BKN050 18/14 Q1021
TAF YBBN 261104Z 2612/2718 14012KT 9999 -SHRA SCT015 BKN025 FM261800 20007KT 9999 NSW FEW020 BKN030 FM262200 14010KT 9999 -SHRA BKN035 FM270100 11012KT 9999 NSW BKN045 FM271200 20005KT 9999 SCT045 INTER 2612/2618 13015G25KT 3000 SHRA BKN015 INTER 2622/2702 5000 SHRA SCT020 

 AIRPORT MAP

 RUNWAY INFORMATION
Runway 01 Runway length 11680 ft Runway width 148 ft
Runway elevation 12 ft Runway displaced threshold 197 ft Runway heading 27
Runway 19 Runway length 11680 ft Runway width 148 ft
Runway elevation 11 ft Runway displaced threshold 0 ft Runway heading 207
Runway 14 Runway length 5577 ft Runway width 98 ft
Runway elevation 11 ft Runway displaced threshold 197 ft Runway heading 147
Runway 32 Runway length 5577 ft Runway width 98 ft
Runway elevation 9 ft Runway displaced threshold 197 ft Runway heading 327

 AIRPORT FREQUENCIES
Type A/D Name APP/DEP Frequency 124.35 MHZ
Type ATIS Name ATIS Frequency 113.2 MHZ
Type CLD Name CLNC DEL Frequency 118.6 MHZ
Type FSS Name RADAR Frequency 125.7 MHZ
Type GND Name GND Frequency 121.7 MHZ
Type TWR Name TWR Frequency 120.5 MHZ

 AIRPORT NEAR NAVIGATION AIDS
Type VOR-DME Name Brisbane Frequency 113200 KHZ